createdAt,value
2022-10-12T00:00:15.305Z,10.38
2022-10-12T00:01:15.282Z,10.38
2022-10-12T00:02:15.346Z,10.39
2022-10-12T00:03:15.239Z,10.38
2022-10-12T00:04:15.219Z,10.42
2022-10-12T00:05:15.197Z,10.35
2022-10-12T00:06:15.181Z,10.38
2022-10-12T00:07:15.164Z,10.35
2022-10-12T00:08:15.144Z,10.21
2022-10-12T00:09:15.117Z,10.20
2022-10-12T00:10:15.105Z,10.18
2022-10-12T00:11:15.073Z,10.09
2022-10-12T00:12:15.056Z,10.09
2022-10-12T00:13:15.032Z,10.14
2022-10-12T00:14:15.025Z,10.12
2022-10-12T00:15:15.070Z,10.09
2022-10-12T00:16:14.971Z,10.09
2022-10-12T00:17:14.948Z,10.06
2022-10-12T00:18:14.976Z,10.10
2022-10-12T00:19:14.904Z,9.96
2022-10-12T00:20:14.888Z,9.88
2022-10-12T00:21:14.863Z,9.94
2022-10-12T00:22:14.847Z,9.96
2022-10-12T00:23:14.825Z,9.93
2022-10-12T00:24:14.799Z,9.96
2022-10-12T00:25:14.777Z,10.06
2022-10-12T00:26:14.761Z,9.99
2022-10-12T00:27:14.741Z,10.01
2022-10-12T00:28:14.761Z,10.02
2022-10-12T00:29:14.702Z,10.06
2022-10-12T00:30:14.675Z,9.94
2022-10-12T00:31:14.655Z,9.90
2022-10-12T00:32:14.637Z,9.84
2022-10-12T00:33:14.612Z,9.81
2022-10-12T00:34:14.610Z,9.78
2022-10-12T00:35:14.568Z,9.78
2022-10-12T00:36:14.548Z,9.75
2022-10-12T00:37:14.530Z,9.78
2022-10-12T00:38:14.505Z,9.73
2022-10-12T00:39:14.490Z,9.73
2022-10-12T00:40:14.467Z,9.75
2022-10-12T00:41:14.438Z,9.75
2022-10-12T00:42:14.419Z,9.80
2022-10-12T00:43:14.399Z,9.83
2022-10-12T00:44:14.381Z,9.91
2022-10-12T00:45:14.356Z,9.87
2022-10-12T00:46:14.339Z,9.87
2022-10-12T00:47:14.314Z,9.85
2022-10-12T00:48:14.295Z,9.72
2022-10-12T00:49:14.272Z,9.75
2022-10-12T00:50:14.277Z,9.80
2022-10-12T00:51:14.230Z,9.72
2022-10-12T00:52:14.212Z,9.77
2022-10-12T00:53:14.195Z,9.70
2022-10-12T00:54:14.168Z,9.77
2022-10-12T00:55:14.144Z,9.63
2022-10-12T00:56:14.130Z,9.69
2022-10-12T00:57:14.103Z,9.67
2022-10-12T00:58:14.083Z,9.63
2022-10-12T00:59:14.060Z,9.62
2022-10-12T01:00:14.043Z,9.65
2022-10-12T01:01:14.099Z,9.77
2022-10-12T01:02:13.996Z,9.65
2022-10-12T01:03:13.977Z,9.67
2022-10-12T01:04:13.961Z,9.66
2022-10-12T01:05:13.933Z,9.66
2022-10-12T01:06:13.934Z,9.69
2022-10-12T01:07:13.889Z,9.65
2022-10-12T01:08:13.874Z,9.65
2022-10-12T01:09:13.850Z,9.66
2022-10-12T01:10:13.827Z,9.65
2022-10-12T01:11:13.805Z,9.59
2022-10-12T01:12:13.785Z,9.63
2022-10-12T01:13:13.763Z,9.65
2022-10-12T01:14:13.740Z,9.62
2022-10-12T01:15:13.726Z,9.66
2022-10-12T01:16:13.699Z,9.57
2022-10-12T01:17:13.675Z,9.63
2022-10-12T01:18:13.655Z,9.66
2022-10-12T01:19:13.636Z,9.63
2022-10-12T01:20:13.619Z,9.65
2022-10-12T01:21:13.588Z,9.65
2022-10-12T01:22:13.590Z,9.55
2022-10-12T01:23:13.549Z,9.60
2022-10-12T01:24:13.528Z,9.63
2022-10-12T01:25:13.508Z,9.60
2022-10-12T01:26:13.486Z,9.55
2022-10-12T01:27:13.463Z,9.57
2022-10-12T01:28:13.523Z,9.54
2022-10-12T01:29:13.420Z,9.52
2022-10-12T01:30:13.403Z,9.57
2022-10-12T01:31:13.374Z,9.52
2022-10-12T01:32:13.365Z,9.47
2022-10-12T01:33:13.330Z,9.57
2022-10-12T01:34:13.311Z,9.44
2022-10-12T01:35:13.295Z,9.42
2022-10-12T01:36:13.271Z,9.42
2022-10-12T01:37:13.250Z,9.41
2022-10-12T01:38:13.248Z,9.44
2022-10-12T01:39:13.203Z,9.41
2022-10-12T01:40:13.184Z,9.42
2022-10-12T01:41:13.162Z,9.44
2022-10-12T01:42:13.140Z,9.40
2022-10-12T01:43:13.124Z,9.27
2022-10-12T01:44:13.104Z,9.27
2022-10-12T01:45:13.077Z,9.29
2022-10-12T01:46:13.066Z,9.32
2022-10-12T01:47:13.031Z,9.27
2022-10-12T01:48:13.022Z,9.29
2022-10-12T01:49:13.003Z,9.27
2022-10-12T01:50:12.974Z,9.27
2022-10-12T01:51:12.950Z,9.24
2022-10-12T01:52:12.926Z,9.37
2022-10-12T01:53:12.905Z,9.37
2022-10-12T01:54:12.903Z,9.27
2022-10-12T01:55:12.864Z,9.24
2022-10-12T01:56:12.842Z,9.26
2022-10-12T01:57:12.821Z,9.27
2022-10-12T01:58:12.797Z,9.26
2022-10-12T01:59:12.776Z,9.30
2022-10-12T02:00:12.753Z,9.24
2022-10-12T02:01:12.811Z,9.24
2022-10-12T02:02:12.708Z,9.30
2022-10-12T02:03:12.687Z,9.32
2022-10-12T02:04:12.672Z,9.24
2022-10-12T02:05:12.652Z,9.27
2022-10-12T02:06:12.631Z,9.29
2022-10-12T02:07:12.606Z,9.27
2022-10-12T02:08:12.585Z,9.29
2022-10-12T02:09:12.558Z,9.24
2022-10-12T02:10:12.562Z,9.29
2022-10-12T02:11:12.515Z,9.18
2022-10-12T02:12:12.499Z,9.16
2022-10-12T02:13:12.479Z,9.27
2022-10-12T02:14:12.453Z,9.14
2022-10-12T02:15:12.429Z,9.14
2022-10-12T02:16:12.409Z,9.14
2022-10-12T02:17:12.392Z,9.08
2022-10-12T02:18:12.368Z,9.09
2022-10-12T02:19:12.346Z,9.09
2022-10-12T02:20:12.325Z,9.18
2022-10-12T02:21:12.298Z,9.11
2022-10-12T02:22:12.279Z,9.11
2022-10-12T02:23:12.261Z,9.15
2022-10-12T02:24:12.238Z,9.14
2022-10-12T02:25:12.213Z,9.16
2022-10-12T02:26:12.214Z,9.14
2022-10-12T02:27:12.171Z,9.11
2022-10-12T02:28:12.206Z,9.19
2022-10-12T02:29:12.144Z,9.12
2022-10-12T02:30:12.111Z,9.11
2022-10-12T02:31:12.089Z,9.11
2022-10-12T02:32:12.062Z,9.09
2022-10-12T02:33:12.044Z,9.09
2022-10-12T02:34:12.021Z,9.09
2022-10-12T02:35:11.996Z,9.08
2022-10-12T02:36:11.980Z,9.11
2022-10-12T02:37:11.951Z,9.15
2022-10-12T02:38:11.933Z,9.09
2022-10-12T02:39:11.911Z,9.12
2022-10-12T02:40:11.892Z,9.12
2022-10-12T02:41:11.864Z,9.06
2022-10-12T02:42:11.866Z,9.08
2022-10-12T02:43:11.886Z,8.95
2022-10-12T02:44:11.809Z,8.98
2022-10-12T02:45:11.783Z,8.92
2022-10-12T02:46:11.760Z,8.89
2022-10-12T02:47:11.736Z,8.89
2022-10-12T02:48:11.716Z,8.92
2022-10-12T02:49:11.693Z,8.81
2022-10-12T02:50:11.677Z,8.85
2022-10-12T02:51:11.651Z,8.85
2022-10-12T02:52:11.629Z,8.81
2022-10-12T02:53:11.604Z,8.90
2022-10-12T02:54:11.587Z,8.93
2022-10-12T02:55:11.564Z,8.92
2022-10-12T02:56:11.543Z,8.92
2022-10-12T02:57:11.525Z,8.88
2022-10-12T02:58:11.515Z,8.93
2022-10-12T02:59:11.475Z,8.85
2022-10-12T03:00:11.453Z,8.92
2022-10-12T03:01:11.526Z,8.83
2022-10-12T03:02:11.411Z,8.81
2022-10-12T03:03:11.387Z,8.80
2022-10-12T03:04:11.370Z,8.92
2022-10-12T03:05:11.344Z,8.93
2022-10-12T03:06:11.321Z,8.89
2022-10-12T03:07:11.302Z,8.85
2022-10-12T03:08:11.280Z,8.81
2022-10-12T03:09:11.260Z,8.92
2022-10-12T03:10:11.232Z,8.95
2022-10-12T03:11:11.212Z,8.86
2022-10-12T03:12:11.190Z,8.80
2022-10-12T03:13:11.174Z,8.86
2022-10-12T03:14:11.175Z,8.77
2022-10-12T03:15:11.128Z,8.72
2022-10-12T03:16:11.105Z,8.72
2022-10-12T03:17:11.080Z,8.80
2022-10-12T03:18:11.062Z,8.74
2022-10-12T03:19:11.039Z,8.75
2022-10-12T03:20:11.019Z,8.72
2022-10-12T03:21:10.991Z,8.67
2022-10-12T03:22:10.974Z,8.68
2022-10-12T03:23:10.949Z,8.67
2022-10-12T03:24:10.931Z,8.67
2022-10-12T03:25:10.911Z,8.55
2022-10-12T03:26:10.884Z,8.57
2022-10-12T03:27:10.867Z,8.57
2022-10-12T03:28:10.895Z,8.50
2022-10-12T03:29:10.816Z,8.52
2022-10-12T03:30:10.817Z,8.50
2022-10-12T03:31:10.775Z,8.52
2022-10-12T03:32:10.756Z,8.52
2022-10-12T03:33:10.732Z,8.52
2022-10-12T03:34:10.708Z,8.55
2022-10-12T03:35:10.693Z,8.55
2022-10-12T03:36:10.670Z,8.65
2022-10-12T03:37:10.645Z,8.63
2022-10-12T03:38:10.626Z,8.63
2022-10-12T03:39:10.603Z,8.63
2022-10-12T03:40:10.584Z,8.68
2022-10-12T03:41:10.560Z,8.65
2022-10-12T03:42:10.538Z,8.74
2022-10-12T03:43:10.515Z,8.71
2022-10-12T03:44:10.495Z,8.65
2022-10-12T03:45:10.473Z,8.63
2022-10-12T03:46:10.468Z,8.65
2022-10-12T03:47:10.421Z,8.65
2022-10-12T03:48:10.403Z,8.67
2022-10-12T03:49:10.388Z,8.60
2022-10-12T03:50:10.367Z,8.62
2022-10-12T03:51:10.333Z,8.65
2022-10-12T03:52:10.312Z,8.60
2022-10-12T03:53:10.290Z,8.53
2022-10-12T03:54:10.272Z,8.62
2022-10-12T03:55:10.250Z,8.60
2022-10-12T03:56:10.228Z,8.67
2022-10-12T03:57:10.203Z,8.67
2022-10-12T03:58:10.181Z,8.65
2022-10-12T03:59:10.162Z,8.67
2022-10-12T04:00:10.140Z,8.62
2022-10-12T04:01:10.147Z,8.62
2022-10-12T04:02:14.340Z,8.62
2022-10-12T04:03:10.078Z,8.57
2022-10-12T04:04:10.053Z,8.59
2022-10-12T04:05:10.033Z,8.57
2022-10-12T04:06:10.014Z,8.57
2022-10-12T04:07:09.987Z,8.63
2022-10-12T04:08:09.967Z,8.56
2022-10-12T04:09:09.952Z,8.65
2022-10-12T04:10:09.928Z,8.60
2022-10-12T04:11:09.895Z,8.56
2022-10-12T04:12:09.874Z,8.60
2022-10-12T04:13:09.847Z,8.52
2022-10-12T04:14:09.830Z,8.55
2022-10-12T04:15:09.851Z,8.60
2022-10-12T04:16:09.795Z,8.65
2022-10-12T04:17:09.765Z,8.60
2022-10-12T04:18:09.773Z,8.59
2022-10-12T04:19:09.723Z,8.57
2022-10-12T04:20:09.705Z,8.67
2022-10-12T04:21:09.676Z,8.55
2022-10-12T04:22:09.658Z,8.53
2022-10-12T04:23:09.634Z,8.53
2022-10-12T04:24:09.617Z,8.55
2022-10-12T04:25:09.588Z,8.53
2022-10-12T04:26:09.570Z,8.50
2022-10-12T04:27:09.546Z,8.53
2022-10-12T04:28:09.548Z,8.50
2022-10-12T04:29:09.501Z,8.39
2022-10-12T04:30:09.479Z,8.52
2022-10-12T04:31:09.463Z,8.47
2022-10-12T04:32:12.503Z,8.49
2022-10-12T04:33:09.418Z,8.46
2022-10-12T04:34:09.408Z,8.44
2022-10-12T04:35:09.370Z,8.46
2022-10-12T04:36:09.354Z,8.44
2022-10-12T04:37:09.325Z,8.39
2022-10-12T04:38:09.300Z,8.37
2022-10-12T04:39:09.276Z,8.35
2022-10-12T04:40:09.261Z,8.37
2022-10-12T04:41:09.237Z,8.39
2022-10-12T04:42:09.215Z,8.38
2022-10-12T04:43:09.191Z,8.35
2022-10-12T04:44:09.171Z,8.37
2022-10-12T04:45:09.152Z,8.39
2022-10-12T04:46:09.124Z,8.38
2022-10-12T04:47:09.103Z,8.50
2022-10-12T04:48:09.090Z,8.50
2022-10-12T04:49:09.059Z,8.47
2022-10-12T04:50:09.060Z,8.39
2022-10-12T04:51:09.018Z,8.41
2022-10-12T04:52:08.996Z,8.44
2022-10-12T04:53:08.967Z,8.37
2022-10-12T04:54:08.949Z,8.37
2022-10-12T04:55:08.929Z,8.34
2022-10-12T04:56:08.902Z,8.50
2022-10-12T04:57:08.880Z,8.42
2022-10-12T04:58:08.860Z,8.44
2022-10-12T04:59:08.845Z,8.47
2022-10-12T05:00:08.820Z,8.41
2022-10-12T05:01:08.888Z,8.46
2022-10-12T05:02:08.770Z,8.46
2022-10-12T05:03:08.752Z,8.38
2022-10-12T05:04:08.725Z,8.39
2022-10-12T05:05:08.706Z,8.42
2022-10-12T05:06:08.703Z,8.49
2022-10-12T05:07:08.669Z,8.47
2022-10-12T05:08:08.639Z,8.44
2022-10-12T05:09:10.118Z,8.44
2022-10-12T05:10:08.592Z,8.44
2022-10-12T05:11:08.572Z,8.47
2022-10-12T05:12:08.551Z,8.46
2022-10-12T05:13:08.526Z,8.41
2022-10-12T05:14:08.505Z,8.46
2022-10-12T05:15:08.490Z,8.52
2022-10-12T05:16:08.467Z,8.47
2022-10-12T05:17:08.443Z,8.49
2022-10-12T05:18:08.420Z,8.50
2022-10-12T05:19:08.399Z,8.46
2022-10-12T05:20:08.373Z,8.42
2022-10-12T05:21:08.354Z,8.44
2022-10-12T05:22:08.353Z,8.44
2022-10-12T05:23:08.305Z,8.47
2022-10-12T05:24:08.286Z,8.42
2022-10-12T05:25:08.260Z,8.39
2022-10-12T05:26:08.243Z,8.47
2022-10-12T05:27:08.220Z,8.47
2022-10-12T05:28:08.196Z,8.49
2022-10-12T05:29:08.170Z,8.44
2022-10-12T05:30:08.156Z,8.39
2022-10-12T05:31:08.131Z,8.44
2022-10-12T05:32:08.108Z,8.44
2022-10-12T05:33:08.083Z,8.44
2022-10-12T05:34:08.068Z,8.42
2022-10-12T05:35:08.042Z,8.46
2022-10-12T05:36:08.026Z,8.42
2022-10-12T05:37:08.000Z,8.42
2022-10-12T05:38:07.999Z,8.47
2022-10-12T05:39:07.956Z,8.37
2022-10-12T05:40:07.932Z,8.38
2022-10-12T05:41:07.906Z,8.37
2022-10-12T05:42:07.888Z,8.39
2022-10-12T05:43:07.867Z,8.32
2022-10-12T05:44:07.843Z,8.32
2022-10-12T05:45:07.821Z,8.38
2022-10-12T05:46:11.014Z,8.41
2022-10-12T05:47:07.778Z,8.35
2022-10-12T05:48:07.758Z,8.38
2022-10-12T05:49:07.730Z,8.37
2022-10-12T05:50:07.713Z,8.35
2022-10-12T05:51:07.683Z,8.37
2022-10-12T05:52:07.673Z,8.37
2022-10-12T05:53:07.655Z,8.37
2022-10-12T05:54:07.655Z,8.38
2022-10-12T05:55:07.600Z,8.44
2022-10-12T05:56:07.579Z,8.32
2022-10-12T05:57:07.555Z,8.24
2022-10-12T05:58:07.532Z,8.39
2022-10-12T05:59:07.510Z,8.34
2022-10-12T06:00:07.487Z,8.34
2022-10-12T06:01:07.465Z,8.39
2022-10-12T06:02:07.511Z,8.39
2022-10-12T06:03:07.418Z,8.38
2022-10-12T06:04:07.402Z,8.35
2022-10-12T06:05:07.374Z,8.44
2022-10-12T06:06:07.361Z,8.38
2022-10-12T06:07:07.347Z,8.46
2022-10-12T06:08:07.324Z,8.37
2022-10-12T06:09:07.293Z,8.42
2022-10-12T06:10:07.293Z,8.47
2022-10-12T06:11:07.250Z,8.42
2022-10-12T06:12:07.228Z,8.44
2022-10-12T06:13:07.205Z,8.47
2022-10-12T06:14:07.177Z,8.55
2022-10-12T06:15:07.156Z,8.47
2022-10-12T06:16:07.134Z,8.53
2022-10-12T06:17:07.108Z,8.56
2022-10-12T06:18:07.091Z,8.59
2022-10-12T06:19:07.068Z,8.63
2022-10-12T06:20:07.050Z,8.77
2022-10-12T06:21:32.881Z,9.03
2022-10-12T06:22:07.003Z,9.34
2022-10-12T06:23:06.989Z,9.44
2022-10-12T06:24:06.964Z,9.62
2022-10-12T06:25:06.939Z,9.55
2022-10-12T06:26:06.986Z,9.62
2022-10-12T06:27:06.900Z,9.57
2022-10-12T06:28:06.878Z,9.65
2022-10-12T06:29:06.863Z,9.52
2022-10-12T06:30:06.840Z,9.59
2022-10-12T06:31:06.813Z,9.45
2022-10-12T06:32:06.790Z,9.60
2022-10-12T06:33:06.773Z,9.63
2022-10-12T06:34:06.751Z,9.73
2022-10-12T06:35:06.733Z,10.12
2022-10-12T06:36:06.706Z,10.38
2022-10-12T06:37:06.688Z,10.54
2022-10-12T06:38:06.670Z,10.79
2022-10-12T06:39:06.647Z,11.08
2022-10-12T06:40:06.629Z,11.22
2022-10-12T06:41:06.608Z,11.38
2022-10-12T06:42:06.782Z,11.54
2022-10-12T06:43:06.572Z,11.67
2022-10-12T06:44:06.558Z,11.59
2022-10-12T06:45:06.528Z,11.49
2022-10-12T06:46:06.514Z,11.56
2022-10-12T06:47:06.492Z,11.59
2022-10-12T06:48:06.477Z,11.71
2022-10-12T06:49:06.457Z,11.85
2022-10-12T06:50:06.440Z,11.87
2022-10-12T06:51:06.431Z,11.76
2022-10-12T06:52:06.404Z,11.88
2022-10-12T06:53:06.388Z,11.99
2022-10-12T06:54:06.371Z,12.17
2022-10-12T06:55:06.352Z,12.43
2022-10-12T06:56:06.336Z,12.62
2022-10-12T06:57:06.318Z,12.95
2022-10-12T06:58:06.330Z,13.14
2022-10-12T06:59:06.286Z,13.02
2022-10-12T07:00:06.274Z,12.90
2022-10-12T07:01:06.255Z,12.93
2022-10-12T07:02:06.240Z,12.95
2022-10-12T07:03:06.224Z,13.01
2022-10-12T07:04:06.217Z,13.35
2022-10-12T07:05:06.190Z,13.63
2022-10-12T07:06:06.179Z,13.85
2022-10-12T07:07:06.163Z,14.16
2022-10-12T07:08:06.152Z,14.45
2022-10-12T07:09:06.145Z,14.73
2022-10-12T07:10:06.121Z,14.95
2022-10-12T07:11:06.111Z,15.20
2022-10-12T07:12:06.103Z,15.41
2022-10-12T07:13:06.092Z,15.60
2022-10-12T07:14:06.114Z,15.62
2022-10-12T07:15:06.064Z,15.93
2022-10-12T07:16:06.056Z,16.17
2022-10-12T07:17:06.045Z,16.51
2022-10-12T07:18:06.036Z,16.58
2022-10-12T07:19:06.035Z,16.77
2022-10-12T07:20:06.015Z,16.74
2022-10-12T07:21:06.004Z,17.14
2022-10-12T07:22:05.990Z,17.47
2022-10-12T07:23:05.998Z,18.26
2022-10-12T07:24:05.972Z,18.64
2022-10-12T07:25:05.966Z,19.16
2022-10-12T07:26:05.965Z,19.54
2022-10-12T07:27:05.950Z,19.53
2022-10-12T07:28:05.940Z,19.71
2022-10-12T07:29:05.933Z,20.12
2022-10-12T07:30:05.948Z,20.61
2022-10-12T07:31:05.918Z,21.00
2022-10-12T07:32:05.910Z,21.11
2022-10-12T07:33:05.905Z,21.01
2022-10-12T07:34:05.900Z,21.28
2022-10-12T07:35:05.901Z,21.37
2022-10-12T07:36:14.805Z,21.93
2022-10-12T07:37:05.883Z,22.00
2022-10-12T07:38:05.873Z,22.49
2022-10-12T07:39:05.866Z,21.78
2022-10-12T07:40:05.864Z,21.07
2022-10-12T07:41:05.865Z,20.68
2022-10-12T07:42:05.851Z,20.23
2022-10-12T07:43:15.675Z,19.68
2022-10-12T07:44:05.834Z,19.16
2022-10-12T07:45:05.818Z,18.48
2022-10-12T07:46:05.910Z,18.09
2022-10-12T07:47:05.805Z,17.49
2022-10-12T07:48:05.799Z,16.77
2022-10-12T07:49:05.783Z,16.33
2022-10-12T07:50:05.786Z,15.90
2022-10-12T07:51:05.773Z,15.58
2022-10-12T07:52:05.763Z,15.20
2022-10-12T07:53:05.740Z,15.05
2022-10-12T07:54:05.732Z,14.93
2022-10-12T07:55:05.728Z,14.74
2022-10-12T07:56:05.708Z,14.51
2022-10-12T07:57:05.701Z,14.49
2022-10-12T07:58:05.691Z,14.45
2022-10-12T07:59:05.681Z,14.45
2022-10-12T08:00:05.655Z,14.33
2022-10-12T08:01:05.636Z,14.21
2022-10-12T08:02:05.707Z,14.12
2022-10-12T08:03:05.614Z,14.12
2022-10-12T08:04:05.599Z,14.11
2022-10-12T08:05:05.580Z,14.15
2022-10-12T08:06:05.590Z,14.05
2022-10-12T08:07:05.554Z,14.09
2022-10-12T08:08:05.545Z,14.12
2022-10-12T08:09:05.534Z,14.49
2022-10-12T08:10:05.518Z,14.73
2022-10-12T08:11:05.495Z,15.07
2022-10-12T08:12:05.482Z,15.65
2022-10-12T08:13:05.464Z,15.98
2022-10-12T08:14:05.457Z,17.12
2022-10-12T08:15:05.446Z,17.83
2022-10-12T08:16:05.433Z,18.74
2022-10-12T08:17:05.414Z,19.27
2022-10-12T08:18:05.551Z,19.70
2022-10-12T08:19:05.390Z,20.79
2022-10-12T08:20:05.460Z,21.48
2022-10-12T08:21:05.373Z,22.03
2022-10-12T08:22:05.356Z,22.34
2022-10-12T08:23:05.347Z,22.12
2022-10-12T08:24:05.342Z,21.90
2022-10-12T08:25:05.334Z,21.80
2022-10-12T08:26:05.324Z,21.65
2022-10-12T08:27:05.310Z,21.63
2022-10-12T08:28:05.300Z,22.40
2022-10-12T08:29:05.291Z,22.98
2022-10-12T08:30:05.283Z,23.52
2022-10-12T08:31:05.271Z,24.01
2022-10-12T08:32:05.269Z,24.16
2022-10-12T08:33:10.128Z,24.16
2022-10-12T08:34:05.276Z,24.38
2022-10-12T08:35:05.243Z,24.45
2022-10-12T08:36:05.242Z,24.65
2022-10-12T08:37:05.226Z,24.90
2022-10-12T08:38:05.229Z,25.27
2022-10-12T08:39:05.220Z,25.68
2022-10-12T08:40:05.221Z,25.59
2022-10-12T08:41:05.208Z,26.08
2022-10-12T08:42:05.205Z,26.42
2022-10-12T08:43:05.195Z,26.36
2022-10-12T08:44:05.187Z,26.48
2022-10-12T08:45:05.203Z,26.60
2022-10-12T08:46:05.181Z,26.78
2022-10-12T08:47:05.174Z,26.97
2022-10-12T08:48:05.173Z,27.03
2022-10-12T08:49:05.181Z,27.12
2022-10-12T08:50:05.180Z,27.30
2022-10-12T08:51:05.157Z,27.40
2022-10-12T08:52:05.154Z,27.63
2022-10-12T08:53:05.151Z,26.89
2022-10-12T08:54:05.144Z,26.24
2022-10-12T08:55:05.138Z,24.66
2022-10-12T08:56:05.146Z,24.43
2022-10-12T08:57:05.132Z,24.86
2022-10-12T08:58:05.129Z,25.64
2022-10-12T08:59:05.122Z,26.03
2022-10-12T09:00:05.123Z,25.68
2022-10-12T09:01:05.124Z,25.68
2022-10-12T09:02:05.179Z,25.89
2022-10-12T09:03:05.111Z,26.26
2022-10-12T09:04:05.104Z,26.63
2022-10-12T09:05:05.106Z,26.61
2022-10-12T09:06:05.129Z,26.90
2022-10-12T09:07:05.095Z,26.88
2022-10-12T09:08:05.089Z,26.80
2022-10-12T09:09:05.085Z,25.96
2022-10-12T09:10:05.082Z,25.45
2022-10-12T09:11:05.074Z,25.75
2022-10-12T09:12:05.070Z,25.68
2022-10-12T09:13:05.080Z,25.98
2022-10-12T09:14:05.063Z,26.03
2022-10-12T09:15:05.052Z,26.41
2022-10-12T09:16:05.051Z,26.73
2022-10-12T09:17:05.046Z,26.48
2022-10-12T09:18:05.038Z,26.00
2022-10-12T09:19:05.046Z,25.37
2022-10-12T09:20:05.052Z,24.99
2022-10-12T09:21:05.035Z,24.38
2022-10-12T09:22:05.034Z,23.81
2022-10-12T09:23:05.010Z,23.37
2022-10-12T09:24:05.001Z,23.04
2022-10-12T09:25:04.997Z,22.83
2022-10-12T09:26:04.982Z,22.55
2022-10-12T09:27:04.975Z,22.37
2022-10-12T09:28:04.976Z,22.22
2022-10-12T09:29:05.075Z,22.49
2022-10-12T09:30:04.947Z,20.89
2022-10-12T09:31:04.937Z,20.27
2022-10-12T09:32:04.929Z,20.60
2022-10-12T09:33:04.927Z,20.50
2022-10-12T09:34:04.912Z,20.64
2022-10-12T09:35:04.899Z,20.86
2022-10-12T09:36:04.892Z,20.63
2022-10-12T09:37:04.875Z,21.07
2022-10-12T09:38:04.929Z,20.83
2022-10-12T09:39:04.855Z,20.61
2022-10-12T09:40:04.848Z,20.68
2022-10-12T09:41:04.836Z,20.97
2022-10-12T09:42:04.824Z,21.74
2022-10-12T09:43:04.821Z,22.53
2022-10-12T09:44:04.803Z,23.03
2022-10-12T09:45:04.794Z,23.36
2022-10-12T09:46:04.781Z,23.23
2022-10-12T09:47:04.778Z,23.15
2022-10-12T09:48:04.764Z,23.70
2022-10-12T09:49:04.753Z,24.43
2022-10-12T09:50:04.743Z,25.04
2022-10-12T09:51:04.740Z,25.23
2022-10-12T09:52:04.724Z,24.79
2022-10-12T09:53:04.716Z,24.68
2022-10-12T09:54:04.738Z,24.15
2022-10-12T09:55:05.520Z,24.19
2022-10-12T09:56:04.695Z,24.18
2022-10-12T09:57:04.679Z,24.15
2022-10-12T09:58:04.663Z,24.52
2022-10-12T09:59:04.655Z,24.91
2022-10-12T10:00:04.644Z,25.31
2022-10-12T10:01:04.635Z,24.99
2022-10-12T10:02:04.717Z,24.99
2022-10-12T10:03:04.618Z,24.99
2022-10-12T10:04:04.606Z,24.94
2022-10-12T10:05:04.596Z,25.46
2022-10-12T10:06:04.586Z,26.00
2022-10-12T10:07:04.580Z,26.08
2022-10-12T10:08:04.564Z,26.36
2022-10-12T10:09:04.556Z,26.48
2022-10-12T10:10:04.575Z,26.68
2022-10-12T10:11:04.536Z,27.04
2022-10-12T10:12:04.524Z,27.41
2022-10-12T10:13:04.520Z,26.64
2022-10-12T10:14:04.510Z,26.64
2022-10-12T10:15:04.512Z,26.49
2022-10-12T10:16:04.490Z,25.55
2022-10-12T10:17:04.486Z,25.58
2022-10-12T10:18:04.471Z,25.75
2022-10-12T10:19:04.461Z,25.98
2022-10-12T10:20:04.453Z,24.93
2022-10-12T10:21:04.443Z,25.06
2022-10-12T10:22:04.436Z,24.82
2022-10-12T10:23:04.425Z,24.28
2022-10-12T10:24:04.421Z,23.78
2022-10-12T10:25:04.406Z,23.29
2022-10-12T10:26:04.477Z,22.81
2022-10-12T10:27:04.392Z,22.25
2022-10-12T10:28:04.382Z,22.21
2022-10-12T10:29:04.365Z,21.47
2022-10-12T10:30:25.494Z,21.18
2022-10-12T10:31:04.355Z,21.16
2022-10-12T10:32:04.339Z,21.08
2022-10-12T10:33:04.325Z,20.74
2022-10-12T10:34:04.333Z,20.83
2022-10-12T10:35:04.305Z,21.00
2022-10-12T10:36:04.298Z,21.35
2022-10-12T10:37:04.287Z,21.63
2022-10-12T10:38:04.276Z,22.16
2022-10-12T10:39:04.260Z,22.61
2022-10-12T10:40:04.254Z,23.13
2022-10-12T10:41:04.238Z,23.34
2022-10-12T10:42:04.266Z,23.61
2022-10-12T10:43:04.218Z,23.61
2022-10-12T10:44:04.205Z,23.67
2022-10-12T10:45:04.198Z,23.86
2022-10-12T10:46:04.187Z,23.76
2022-10-12T10:47:04.178Z,23.67
2022-10-12T10:48:04.164Z,23.59
2022-10-12T10:49:04.154Z,23.66
2022-10-12T10:50:04.155Z,23.48
2022-10-12T10:51:04.131Z,23.60
2022-10-12T10:52:04.125Z,23.70
2022-10-12T10:53:04.111Z,23.84
2022-10-12T10:54:04.098Z,24.01
2022-10-12T10:55:04.091Z,24.04
2022-10-12T10:56:04.078Z,24.08
2022-10-12T10:57:04.071Z,24.08
2022-10-12T10:58:04.092Z,24.18
2022-10-12T10:59:09.062Z,24.10
2022-10-12T11:00:33.481Z,23.60
2022-10-12T11:01:04.022Z,23.63
2022-10-12T11:02:04.085Z,23.51
2022-10-12T11:03:03.999Z,23.59
2022-10-12T11:04:03.990Z,23.54
2022-10-12T11:05:03.997Z,23.34
2022-10-12T11:06:03.979Z,23.48
2022-10-12T11:07:03.959Z,23.70
2022-10-12T11:08:03.949Z,24.07
2022-10-12T11:09:03.934Z,24.36
2022-10-12T11:10:03.927Z,24.00
2022-10-12T11:11:03.922Z,23.92
2022-10-12T11:12:03.909Z,23.55
2022-10-12T11:13:03.891Z,23.82
2022-10-12T11:14:04.050Z,23.59
2022-10-12T11:15:03.885Z,23.70
2022-10-12T11:16:03.890Z,23.63
2022-10-12T11:17:03.851Z,23.33
2022-10-12T11:18:03.856Z,23.04
2022-10-12T11:19:03.831Z,23.07
2022-10-12T11:20:03.820Z,23.28
2022-10-12T11:21:03.885Z,23.11
2022-10-12T11:22:03.798Z,23.21
2022-10-12T11:23:03.787Z,23.21
2022-10-12T11:24:03.777Z,22.99
2022-10-12T11:25:03.766Z,22.71
2022-10-12T11:26:03.752Z,22.34
2022-10-12T11:27:03.742Z,21.91
2022-10-12T11:28:03.739Z,21.74
2022-10-12T11:29:03.721Z,21.45
2022-10-12T11:30:09.214Z,21.37
2022-10-12T11:31:03.766Z,21.43
2022-10-12T11:32:03.693Z,21.73
2022-10-12T11:33:03.678Z,21.94
2022-10-12T11:34:03.671Z,22.12
2022-10-12T11:35:03.658Z,22.41
2022-10-12T11:36:03.645Z,22.58
2022-10-12T11:37:20.509Z,22.43
2022-10-12T11:38:03.627Z,22.68
2022-10-12T11:39:07.179Z,22.93
2022-10-12T11:40:03.601Z,22.76
2022-10-12T11:41:19.093Z,22.95
2022-10-12T11:42:20.791Z,23.23
2022-10-12T11:43:06.514Z,23.13
2022-10-12T11:44:03.556Z,22.92
2022-10-12T11:45:03.641Z,23.06
2022-10-12T11:46:03.552Z,22.23
2022-10-12T11:47:03.521Z,22.11
2022-10-12T11:48:03.514Z,22.21
2022-10-12T11:49:03.499Z,22.36
2022-10-12T11:50:03.493Z,22.59
2022-10-12T11:51:04.390Z,22.40
2022-10-12T11:52:03.468Z,22.21
2022-10-12T11:53:03.457Z,21.88
2022-10-12T11:54:03.445Z,21.91
2022-10-12T11:55:03.438Z,21.69
2022-10-12T11:56:03.422Z,21.62
2022-10-12T11:57:03.411Z,21.88
2022-10-12T11:58:03.398Z,22.09
2022-10-12T11:59:03.387Z,22.15
2022-10-12T12:00:03.404Z,22.25
2022-10-12T12:01:03.365Z,22.41
2022-10-12T12:02:03.441Z,22.56
2022-10-12T12:03:03.346Z,22.64
2022-10-12T12:04:22.698Z,22.48
2022-10-12T12:05:03.315Z,22.12
2022-10-12T12:06:03.309Z,22.09
2022-10-12T12:07:03.307Z,22.31
2022-10-12T12:08:03.288Z,22.43
2022-10-12T12:09:03.273Z,22.55
2022-10-12T12:10:03.264Z,22.62
2022-10-12T12:11:03.249Z,22.41
2022-10-12T12:12:03.237Z,22.70
2022-10-12T12:13:03.227Z,22.64
2022-10-12T12:14:03.215Z,22.77
2022-10-12T12:15:03.204Z,22.86
2022-10-12T12:16:03.196Z,22.71
2022-10-12T12:17:03.178Z,22.76
2022-10-12T12:18:03.202Z,22.61
2022-10-12T12:19:03.174Z,22.58
2022-10-12T12:20:03.147Z,22.71
2022-10-12T12:21:03.147Z,22.86
2022-10-12T12:22:03.124Z,22.98
2022-10-12T12:23:03.114Z,23.07
2022-10-12T12:24:03.116Z,23.33
2022-10-12T12:25:03.091Z,23.37
2022-10-12T12:26:03.080Z,23.63
2022-10-12T12:27:03.069Z,23.36
2022-10-12T12:28:03.058Z,23.52
2022-10-12T12:29:03.067Z,23.56
2022-10-12T12:30:03.035Z,23.61
2022-10-12T12:31:03.021Z,23.42
2022-10-12T12:32:03.012Z,23.07
2022-10-12T12:33:03.009Z,23.26
2022-10-12T12:34:03.009Z,23.49
2022-10-12T12:35:02.974Z,23.21
2022-10-12T12:36:02.964Z,23.36
2022-10-12T12:37:02.951Z,23.18
2022-10-12T12:38:02.948Z,23.10
2022-10-12T12:39:02.931Z,22.44
2022-10-12T12:40:02.919Z,22.18
2022-10-12T12:41:02.908Z,22.31
2022-10-12T12:42:02.975Z,22.56
2022-10-12T12:43:02.884Z,22.66
2022-10-12T12:44:02.876Z,22.74
2022-10-12T12:45:02.870Z,22.99
2022-10-12T12:46:02.854Z,23.10
2022-10-12T12:47:06.003Z,23.29
2022-10-12T12:48:02.843Z,23.29
2022-10-12T12:49:02.816Z,23.33
2022-10-12T12:50:02.826Z,23.17
2022-10-12T12:51:02.797Z,23.10
2022-10-12T12:52:02.788Z,23.08
2022-10-12T12:53:02.779Z,23.23
2022-10-12T12:54:02.767Z,23.29
2022-10-12T12:55:02.753Z,23.60
2022-10-12T12:56:02.742Z,23.61
2022-10-12T12:57:02.731Z,23.79
2022-10-12T12:58:02.722Z,23.89
2022-10-12T12:59:02.702Z,23.91
2022-10-12T13:00:02.755Z,23.91
2022-10-12T13:01:02.685Z,23.86
2022-10-12T13:02:02.735Z,23.88
2022-10-12T13:03:02.663Z,23.85
2022-10-12T13:04:02.654Z,23.08